EW8567 Weather Reports


time (UTC)temp
C
wind
direction
speed
KPH
gust
KPH
rain 1hr
cm
rain 24hr
cm
rain mn
cm
humidity
%
barometer
mb
20260507153008 21 132 0.0 3.2 0.00 0.00 0.00 44 1008.6
20260507152505 21 110 0.0 3.2 0.00 0.00 0.00 44 1008.5
20260507152008 21 93 0.0 3.2 0.00 0.00 0.00 44 1008.4
20260507151504 21 106 0.0 3.2 0.00 0.00 0.00 43 1008.3
20260507151008 21 112 0.0 3.2 0.00 0.00 0.00 43 1008.2
20260507150505 21 95 0.0 3.2 0.00 0.00 0.00 42 1008.4
20260507150009 22 94 0.0 3.2 0.00 0.00 0.00 42 1008.4
20260507145505 22 82 0.0 3.2 0.00 0.00 0.00 42 1008.2
20260507145008 22 77 1.6 3.2 0.00 0.00 0.00 42 1008.2
20260507144504 22 80 1.6 3.2 0.00 0.00 0.00 41 1008.2
20260507144008 22 77 1.6 3.2 0.00 0.00 0.00 40 1008.2
20260507143505 23 80 1.6 3.2 0.00 0.00 0.00 40 1008.0
20260507143008 23 86 0.0 3.2 0.00 0.00 0.00 39 1008.1
20260507142504 23 86 0.0 3.2 0.00 0.00 0.00 39 1008.1
20260507142008 23 90 1.6 6.4 0.00 0.00 0.00 38 1008.1
20260507141505 24 106 1.6 6.4 0.00 0.00 0.00 37 1008.1
20260507141008 25 134 1.6 6.4 0.00 0.00 0.00 36 1008.0
20260507140505 25 151 3.2 6.4 0.00 0.00 0.00 35 1008.0
20260507140008 25 145 1.6 6.4 0.00 0.00 0.00 36 1008.0
20260507135504 25 135 1.6 9.7 0.00 0.00 0.00 34 1007.9
20260507135008 26 149 1.6 9.7 0.00 0.00 0.00 34 1007.9
20260507134505 26 170 1.6 6.4 0.00 0.00 0.00 34 1007.9
20260507134008 26 162 1.6 6.4 0.00 0.00 0.00 33 1007.9
20260507133504 26 149 1.6 6.4 0.00 0.00 0.00 32 1007.9
20260507133008 26 158 1.6 6.4 0.00 0.00 0.00 33 1007.9
20260507132504 26 153 1.6 6.4 0.00 0.00 0.00 33 1007.8
20260507132009 26 164 1.6 6.4 0.00 0.00 0.00 33 1007.9
20260507131504 26 204 3.2 9.7 0.00 0.00 0.00 33 1007.9
20260507131008 26 127 1.6 9.7 0.00 0.00 0.00 32 1007.9
20260507130504 26 81 1.6 9.7 0.00 0.00 0.00 33 1007.9
20260507130008 26 87 3.2 9.7 0.00 0.00 0.00 33 1008.0
20260507125505 26 81 1.6 6.4 0.00 0.00 0.00 32 1007.9
20260507125008 27 43 1.6 3.2 0.00 0.00 0.00 32 1007.9
20260507124504 26 36 1.6 6.4 0.00 0.00 0.00 32 1007.9
20260507124008 26 62 1.6 6.4 0.00 0.00 0.00 31 1007.8
20260507123504 27 94 1.6 6.4 0.00 0.00 0.00 32 1007.9
20260507123009 27 115 1.6 6.4 0.00 0.00 0.00 32 1007.9
20260507122504 27 118 1.6 9.7 0.00 0.00 0.00 31 1007.9
20260507122008 27 93 1.6 9.7 0.00 0.00 0.00 31 1007.8
20260507121505 27 74 1.6 9.7 0.00 0.00 0.00 32 1007.8
20260507121007 27 44 3.2 6.4 0.00 0.00 0.00 31 1007.9
20260507120505 27 25 3.2 6.4 0.00 0.00 0.00 32 1007.9
20260507120008 27 65 1.6 6.4 0.00 0.00 0.00 31 1008.0
20260507115505 27 73 1.6 6.4 0.00 0.00 0.00 33 1008.0
20260507115008 26 303 4.8 12.9 0.00 0.00 0.00 32 1008.0
20260507114504 27 273 4.8 12.9 0.00 0.00 0.00 32 1008.0
20260507114008 27 250 3.2 9.7 0.00 0.00 0.00 31 1008.1
20260507113504 27 270 3.2 6.4 0.00 0.00 0.00 31 1008.1
20260507113008 27 270 1.6 6.4 0.00 0.00 0.00 32 1008.1
20260507112505 27 103 3.2 11.3 0.00 0.00 0.00 33 1008.3
20260507112008 27 61 3.2 11.3 0.00 0.00 0.00 33 1008.2
20260507111506 27 351 3.2 11.3 0.00 0.00 0.00 32 1008.2
20260507111008 27 343 3.2 11.3 0.00 0.00 0.00 32 1008.3
20260507110505 27 322 3.2 11.3 0.00 0.00 0.00 34 1008.2
20260507110008 27 307 3.2 11.3 0.00 0.00 0.00 34 1008.3
20260507105505 27 318 3.2 11.3 0.00 0.00 0.00 32 1008.3
20260507105009 26 341 3.2 11.3 0.00 0.00 0.00 33 1008.3
20260507104506 26 317 3.2 11.3 0.00 0.00 0.00 33 1008.4
20260507104008 27 292 4.8 14.5 0.00 0.00 0.00 33 1008.4
20260507103504 26 298 4.8 14.5 0.00 0.00 0.00 32 1008.4
20260507103008 27 291 6.4 17.7 0.00 0.00 0.00 33 1008.5
20260507102505 26 271 6.4 17.7 0.00 0.00 0.00 34 1008.3
20260507102008 26 240 4.8 12.9 0.00 0.00 0.00 32 1008.5
20260507101507 26 217 4.8 9.7 0.00 0.00 0.00 32 1008.5
20260507101008 26 234 4.8 11.3 0.00 0.00 0.00 32 1008.5
20260507100504 26 264 6.4 12.9 0.00 0.00 0.00 32 1008.6
20260507100009 26 267 4.8 12.9 0.00 0.00 0.00 31 1008.6
20260507095504 26 207 3.2 9.7 0.00 0.00 0.00 31 1008.6
20260507095008 26 154 3.2 9.7 0.00 0.00 0.00 30 1008.5
20260507094504 26 223 3.2 9.7 0.00 0.00 0.00 29 1008.6
20260507094007 26 265 4.8 14.5 0.00 0.00 0.00 28 1008.7
20260507093505 26 274 6.4 14.5 0.00 0.00 0.00 29 1008.6
20260507093007 26 273 6.4 12.9 0.00 0.00 0.00 28 1008.7
20260507092505 26 271 6.4 14.5 0.00 0.00 0.00 29 1008.8
20260507092007 26 282 4.8 14.5 0.00 0.00 0.00 30 1008.8
20260507091505 26 344 3.2 11.3 0.00 0.00 0.00 30 1008.9
20260507091008 26 351 4.8 11.3 0.00 0.00 0.00 32 1008.9
20260507090504 25 306 4.8 12.9 0.00 0.00 0.00 31 1008.9
20260507090008 26 284 6.4 12.9 0.00 0.00 0.00 31 1008.8
20260507085504 25 275 6.4 12.9 0.00 0.00 0.00 31 1008.9
20260507085008 25 284 4.8 12.9 0.00 0.00 0.00 33 1008.8
20260507084504 26 305 3.2 11.3 0.00 0.00 0.00 33 1008.8
20260507084007 25 297 4.8 9.7 0.00 0.00 0.00 35 1008.6
20260507083504 25 282 4.8 14.5 0.00 0.00 0.00 34 1008.6
20260507083007 25 272 6.4 14.5 0.00 0.00 0.00 35 1008.7
20260507082504 25 266 6.4 14.5 0.00 0.00 0.00 33 1008.8
20260507082008 25 244 4.8 14.5 0.00 0.00 0.00 35 1008.7
20260507081504 26 227 3.2 6.4 0.00 0.00 0.00 35 1008.7
20260507081008 25 298 3.2 9.7 0.00 0.00 0.00 34 1008.7
20260507080504 25 317 4.8 11.3 0.00 0.00 0.00 34 1008.7
20260507080007 25 308 4.8 11.3 0.00 0.00 0.00 35 1008.7
20260507075505 25 306 4.8 12.9 0.00 0.00 0.00 35 1008.8
20260507075007 25 296 3.2 12.9 0.00 0.00 0.00 36 1008.8
20260507074505 25 131 3.2 6.4 0.00 0.00 0.00 35 1008.8
20260507074007 25 163 3.2 9.7 0.00 0.00 0.00 36 1008.7
20260507073505 25 219 3.2 9.7 0.00 0.00 0.00 36 1008.8
20260507073008 25 250 3.2 6.4 0.00 0.00 0.00 36 1008.7
20260507072504 25 246 1.6 6.4 0.00 0.00 0.00 36 1008.7
20260507072008 25 209 1.6 6.4 0.00 0.00 0.00 35 1008.9
20260507071504 25 119 1.6 6.4 0.00 0.00 0.00 35 1008.9
20260507071007 25 320 1.6 9.7 0.00 0.00 0.00 36 1008.9
20260507070504 24 270 3.2 9.7 0.00 0.00 0.00 35 1008.9
20260507070011 24 256 3.2 9.7 0.00 0.00 0.00 36 1009.0
20260507065504 25 179 1.6 6.4 0.00 0.00 0.00 37 1009.1
20260507065008 24 158 3.2 11.3 0.00 0.00 0.00 35 1009.1
20260507064505 23 216 3.2 11.3 0.00 0.00 0.00 36 1009.1
20260507064008 24 249 3.2 11.3 0.00 0.00 0.00 37 1009.3
20260507063504 23 255 4.8 12.9 0.00 0.00 0.00 38 1009.3
20260507063008 23 277 4.8 12.9 0.00 0.00 0.00 38 1009.2
20260507062504 23 241 3.2 12.9 0.00 0.00 0.00 39 1009.2
20260507062007 23 200 3.2 9.7 0.00 0.00 0.00 37 1009.2
20260507061504 23 233 3.2 9.7 0.00 0.00 0.00 36 1009.3
20260507061008 23 281 4.8 14.5 0.00 0.00 0.00 36 1009.3
20260507060504 23 279 4.8 14.5 0.00 0.00 0.00 39 1009.4
20260507060007 23 277 3.2 12.9 0.00 0.00 0.00 37 1009.3
20260507055505 23 225 3.2 11.3 0.00 0.00 0.00 38 1009.2
20260507055008 23 207 4.8 11.3 0.00 0.00 0.00 36 1009.3
20260507054504 22 220 4.8 11.3 0.00 0.00 0.00 36 1009.3
20260507054007 22 253 3.2 11.3 0.00 0.00 0.00 38 1009.2
20260507053504 22 263 4.8 11.3 0.00 0.00 0.00 39 1009.2
20260507053008 22 242 3.2 11.3 0.00 0.00 0.00 39 1009.2
20260507052504 23 228 3.2 14.5 0.00 0.00 0.00 38 1009.2
20260507052007 22 233 3.2 14.5 0.00 0.00 0.00 40 1009.3
20260507051505 22 203 3.2 9.7 0.00 0.00 0.00 39 1009.2
20260507051008 22 210 3.2 9.7 0.00 0.00 0.00 40 1009.4
20260507050504 22 223 3.2 9.7 0.00 0.00 0.00 41 1009.4
20260507050008 21 214 4.8 11.3 0.00 0.00 0.00 40 1009.3
20260507045504 21 232 4.8 11.3 0.00 0.00 0.00 41 1009.4
20260507045008 21 249 4.8 11.3 0.00 0.00 0.00 42 1009.3
20260507044504 21 245 4.8 11.3 0.00 0.00 0.00 42 1009.4
20260507044008 21 245 4.8 9.7 0.00 0.00 0.00 43 1009.3
20260507043504 21 246 4.8 9.7 0.00 0.00 0.00 44 1009.3
20260507043008 20 243 4.8 11.3 0.00 0.00 0.00 45 1009.4
20260507042504 20 250 6.4 11.3 0.00 0.00 0.00 47 1009.4
20260507042007 20 274 6.4 11.3 0.00 0.00 0.00 46 1009.5
20260507041505 20 267 6.4 12.9 0.00 0.00 0.00 48 1009.4
20260507041008 19 269 8.0 14.5 0.00 0.00 0.00 48 1009.3
20260507040504 19 278 8.0 14.5 0.00 0.00 0.00 49 1009.4
20260507040007 19 264 6.4 14.5 0.00 0.00 0.00 49 1009.3
20260507035505 19 253 6.4 12.9 0.00 0.00 0.00 50 1009.3
20260507035008 18 263 6.4 14.5 0.00 0.00 0.00 52 1009.3
20260507034505 18 277 8.0 14.5 0.00 0.00 0.00 51 1009.3
20260507034007 18 278 6.4 12.9 0.00 0.00 0.00 52 1009.4
20260507033505 18 273 6.4 12.9 0.00 0.00 0.00 54 1009.4
20260507033008 18 272 6.4 12.9 0.00 0.00 0.00 52 1009.4
20260507032504 18 261 4.8 12.9 0.00 0.00 0.00 50 1009.4
20260507032008 18 240 3.2 9.7 0.00 0.00 0.00 50 1009.3
20260507031505 18 229 1.6 6.4 0.00 0.00 0.00 50 1009.3
20260507031008 17 241 1.6 6.4 0.00 0.00 0.00 53 1009.3
20260507030504 17 265 1.6 6.4 0.00 0.00 0.00 53 1009.3
20260507030008 16 281 1.6 6.4 0.00 0.00 0.00 56 1009.3
20260507025505 16 285 1.6 3.2 0.00 0.00 0.00 57 1009.4
20260507025008 16 284 1.6 3.2 0.00 0.00 0.00 58 1009.2
20260507024504 15 282 0.0 3.2 0.00 0.00 0.00 57 1009.3
20260507024007 15 193 0.0 3.2 0.00 0.00 0.00 58 1009.3
20260507023505 15 193 0.0 3.2 0.00 0.00 0.00 57 1009.3
20260507023008 15 250 0.0 3.2 0.00 0.00 0.00 58 1009.3
20260507022505 14 85 0.0 3.2 0.00 0.00 0.00 60 1009.3
20260507022008 15 93 0.0 6.4 0.00 0.00 0.00 58 1009.4
20260507021504 15 93 0.0 6.4 0.00 0.00 0.00 59 1009.4
20260507021008 15 93 0.0 3.2 0.00 0.00 0.00 60 1009.3
20260507020505 14 90 1.6 3.2 0.00 0.00 0.00 61 1009.3
20260507020009 13 90 0.0 3.2 0.00 0.00 0.00 61 1009.3
20260507015504 13 90 0.0 3.2 0.00 0.00 0.00 62 1009.5
20260507015008 13 90 1.6 3.2 0.00 0.00 0.00 62 1009.3
20260507014504 12 90 1.6 3.2 0.00 0.00 0.00 64 1009.2
20260507014009 12 90 1.6 3.2 0.00 0.00 0.00 63 1009.3
20260507013504 12 81 1.6 3.2 0.00 0.00 0.00 65 1009.3
20260507013008 12 69 1.6 3.2 0.00 0.00 0.00 66 1009.3
20260507012504 11 69 1.6 3.2 0.00 0.00 0.00 67 1009.2
20260507012008 11 69 1.6 3.2 0.00 0.00 0.00 68 1009.3
20260507011504 11 68 1.6 3.2 0.00 0.00 0.00 69 1009.1
20260507011007 10 69 0.0 3.2 0.00 0.00 0.00 70 1009.2
20260507010505 10 69 0.0 3.2 0.00 0.00 0.00 71 1009.3
20260507010007 10 69 0.0 3.2 0.00 0.00 0.00 74 1009.3
20260507005505 8 68 0.0 3.2 0.00 0.00 0.00 75 1009.2
20260507005008 8 68 0.0 3.2 0.00 0.00 0.00 78 1009.2
20260507004505 7 68 0.0 3.2 0.00 0.00 0.00 79 1009.2
20260507004008 7 68 0.0 3.2 0.00 0.00 0.00 80 1009.3
20260507003504 7 0 0.0 0.0 0.00 0.00 0.00 81 1009.2
20260507003008 6 0 0.0 0.0 0.00 0.00 0.00 83 1009.3
20260507002504 6 0 0.0 0.0 0.00 0.00 0.00 84 1009.3
20260507002007 6 0 0.0 0.0 0.00 0.00 0.00 83 1009.3
20260507001505 6 68 0.0 3.2 0.00 0.00 0.00 82 1009.3
20260507001008 6 68 0.0 3.2 0.00 0.00 0.00 82 1009.3
20260507000505 6 68 0.0 3.2 0.00 0.00 0.00 81 1009.4
20260507000008 6 0 0.0 0.0 0.00 0.00 0.00 79 1009.4
20260506235505 7 68 0.0 3.2 0.00 0.00 0.00 78 1009.4
20260506235007 7 68 0.0 3.2 0.00 0.00 0.00 78 1009.2
20260506234504 7 68 0.0 3.2 0.00 0.00 0.00 78 1009.4
20260506234007 7 68 0.0 3.2 0.00 0.00 0.00 77 1009.4
20260506233504 8 0 0.0 0.0 0.00 0.00 0.00 75 1009.4
20260506233008 8 0 0.0 0.0 0.00 0.00 0.00 75 1009.3
20260506232505 8 68 0.0 3.2 0.00 0.00 0.00 75 1009.3
20260506232007 8 68 0.0 3.2 0.00 0.00 0.00 74 1009.3
20260506231505 8 68 0.0 3.2 0.00 0.00 0.00 74 1009.2
20260506231008 8 68 0.0 3.2 0.00 0.00 0.00 75 1009.3
20260506230504 8 68 0.0 3.2 0.00 0.00 0.00 75 1009.3
20260506230008 8 0 0.0 0.0 0.00 0.00 0.00 75 1009.5
20260506225505 8 0 0.0 0.0 0.00 0.00 0.00 75 1009.2
20260506225008 8 0 0.0 0.0 0.00 0.00 0.00 73 1009.3
20260506224505 8 0 0.0 0.0 0.00 0.00 0.00 72 1009.2
20260506224008 9 0 0.0 0.0 0.00 0.00 0.00 73 1009.4
20260506223504 9 0 0.0 0.0 0.00 0.00 0.00 72 1009.3
20260506223008 9 68 0.0 3.2 0.00 0.00 0.00 72 1009.3
20260506222504 9 69 0.0 3.2 0.00 0.00 0.00 71 1009.3
20260506222008 10 68 0.0 3.2 0.00 0.00 0.00 71 1009.3
20260506221505 9 0 0.0 0.0 0.00 0.00 0.00 71 1009.2
20260506221008 10 0 0.0 0.0 0.00 0.00 0.00 69 1009.2
20260506220504 10 68 0.0 3.2 0.00 0.00 0.00 68 1009.3
20260506220007 10 68 1.6 3.2 0.00 0.00 0.00 67 1009.4
20260506215505 10 68 1.6 3.2 0.00 0.00 0.00 67 1009.4
20260506215007 10 69 1.6 3.2 0.00 0.00 0.00 67 1009.4
20260506214504 11 69 1.6 3.2 0.00 0.00 0.00 67 1009.5
20260506214008 11 69 1.6 3.2 0.00 0.00 0.00 66 1009.5
20260506213504 11 69 1.6 3.2 0.00 0.00 0.00 66 1009.5
20260506213008 11 68 1.6 3.2 0.00 0.00 0.00 67 1009.6
20260506212504 11 68 0.0 3.2 0.00 0.00 0.00 66 1009.5
20260506212008 11 68 0.0 3.2 0.00 0.00 0.00 65 1009.6
20260506211504 11 68 0.0 3.2 0.00 0.00 0.00 64 1009.6
20260506211007 11 69 0.0 3.2 0.00 0.00 0.00 65 1009.6
20260506210504 11 68 0.0 3.2 0.00 0.00 0.00 66 1009.6
20260506210007 11 69 0.0 3.2 0.00 0.00 0.00 65 1009.6
20260506205504 11 79 0.0 3.2 0.00 0.00 0.00 64 1009.5
20260506205007 11 90 0.0 3.2 0.00 0.00 0.00 64 1009.5
20260506204504 11 90 0.0 3.2 0.00 0.00 0.00 64 1009.5
20260506204008 11 90 1.6 3.2 0.00 0.00 0.00 64 1009.6
20260506203504 11 128 1.6 3.2 0.00 0.00 0.00 64 1009.7
20260506203007 12 202 0.0 3.2 0.00 0.00 0.00 62 1009.6
20260506202505 12 156 0.0 3.2 0.00 0.00 0.00 62 1009.6
20260506202007 12 112 0.0 3.2 0.00 0.00 0.00 63 1009.6
20260506201505 12 112 0.0 3.2 0.00 0.00 0.00 63 1009.6
20260506201008 12 111 0.0 3.2 0.00 0.00 0.00 62 1009.7
20260506200504 12 112 0.0 3.2 0.00 0.00 0.00 62 1009.7
20260506200007 13 112 0.0 3.2 0.00 0.00 0.00 61 1009.7
20260506195505 13 112 0.0 3.2 0.00 0.00 0.00 60 1009.7
20260506195008 13 125 0.0 3.2 0.00 0.00 0.00 60 1009.7
20260506194504 13 144 0.0 3.2 0.00 0.00 0.00 59 1009.7
20260506194007 13 144 0.0 3.2 0.00 0.00 0.00 58 1009.8
20260506193505 14 148 0.0 3.2 0.00 0.00 0.00 58 1009.6
20260506193008 14 172 1.6 6.4 0.00 0.00 0.00 57 1009.8
20260506192504 15 174 1.6 6.4 0.00 0.00 0.00 56 1009.6
20260506192007 15 169 1.6 6.4 0.00 0.00 0.00 55 1009.7
20260506191504 15 172 1.6 9.7 0.00 0.00 0.00 55 1009.7
20260506191008 15 168 3.2 9.7 0.00 0.00 0.00 54 1009.8
20260506190504 15 170 3.2 6.4 0.00 0.00 0.00 54 1009.7
20260506190010 15 183 3.2 11.3 0.00 0.00 0.00 53 1009.7
20260506185504 15 192 3.2 11.3 0.00 0.00 0.00 53 1009.8
20260506185007 15 195 4.8 11.3 0.00 0.00 0.00 53 1009.9
20260506184504 16 192 4.8 11.3 0.00 0.00 0.00 51 1009.9
20260506184008 16 193 6.4 12.9 0.00 0.00 0.00 51 1009.9
20260506183504 16 192 6.4 12.9 0.00 0.00 0.00 51 1010.0
20260506183007 16 198 4.8 12.9 0.00 0.00 0.00 50 1009.9
20260506182504 16 198 4.8 12.9 0.00 0.00 0.00 50 1009.9
20260506182008 16 192 4.8 11.3 0.00 0.00 0.00 50 1010.1
20260506181504 16 189 4.8 12.9 0.00 0.00 0.00 50 1009.9
20260506181008 16 184 4.8 12.9 0.00 0.00 0.00 49 1010.0
20260506180504 16 192 4.8 11.3 0.00 0.00 0.00 49 1010.0
20260506180008 16 190 4.8 11.3 0.00 0.00 0.00 49 1010.1
20260506175504 16 185 3.2 11.3 0.00 0.00 0.00 50 1010.0
20260506175008 16 187 1.6 9.7 0.00 0.00 0.00 51 1010.1
20260506174504 15 159 0.0 3.2 0.00 0.00 0.00 52 1010.1
20260506174008 15 151 1.6 6.4 0.00 0.00 0.00 53 1010.2
20260506173504 16 155 1.6 6.4 0.00 0.00 0.00 52 1010.1
20260506173008 16 151 1.6 6.4 0.00 0.00 0.00 52 1010.0
20260506172504 16 149 1.6 6.4 0.00 0.00 0.00 51 1010.0
20260506172008 16 161 1.6 6.4 0.00 0.00 0.00 51 1010.0
20260506171505 16 172 0.0 3.2 0.00 0.00 0.00 51 1010.0
20260506171007 16 136 0.0 3.2 0.00 0.00 0.00 51 1009.9
20260506170504 16 133 1.6 6.4 0.00 0.00 0.00 50 1010.0
20260506170008 16 139 1.6 6.4 0.00 0.00 0.00 50 1010.0
20260506165504 16 153 1.6 6.4 0.00 0.00 0.00 49 1010.0
20260506165008 16 161 0.0 6.4 0.00 0.00 0.00 49 1010.1
20260506164504 16 178 0.0 3.2 0.00 0.00 0.00 49 1010.0
20260506164008 17 201 0.0 3.2 0.00 0.00 0.00 49 1009.9
20260506163504 17 191 0.0 3.2 0.00 0.00 0.00 48 1010.0
20260506163008 17 181 0.0 3.2 0.00 0.00 0.00 47 1010.0
20260506162504 17 187 0.0 3.2 0.00 0.00 0.00 47 1009.9
20260506162007 17 191 0.0 3.2 0.00 0.00 0.00 47 1010.0
20260506161505 17 188 0.0 3.2 0.00 0.00 0.00 47 1010.0
20260506161007 17 148 0.0 6.4 0.00 0.00 0.00 47 1010.0
20260506160505 18 147 1.6 6.4 0.00 0.00 0.00 46 1009.9
20260506160007 18 153 0.0 3.2 0.00 0.00 0.00 45 1010.0
20260506155504 18 161 0.0 3.2 0.00 0.00 0.00 45 1009.9
20260506155007 18 162 1.6 6.4 0.00 0.00 0.00 44 1009.9
20260506154505 18 165 1.6 6.4 0.00 0.00 0.00 44 1009.8
20260506154008 19 163 1.6 6.4 0.00 0.00 0.00 43 1009.7
20260506153504 19 158 1.6 6.4 0.00 0.00 0.00 43 1009.7